Time;durP1;ratioP1;P1;durP2;ratioP2;P2;SDS_P1;SDS_P2;PMS_P1;PMS_P2;Temp;Humidity;BMP_temperature;BMP_pressure;BME280_temperature;BME280_humidity;BME280_pressure;Samples;Min_cycle;Max_cycle;Signal;HPM_P1;HPM_P2
2023/09/21 00:00:14;;;;;;;2.00;1.33;;;;;;;17.36;75.22;99914.50;4946724;28;20082;-80
2023/09/21 00:02:49;;;;;;;2.20;1.20;;;;;;;17.38;75.47;99914.38;4950914;29;20027;-81
2023/09/21 00:05:19;;;;;;;2.33;1.25;;;;;;;17.37;75.16;99910.06;4946376;28;20027;-81
2023/09/21 00:07:45;;;;;;;3.40;1.30;;;;;;;17.37;74.94;99908.28;4950457;29;20114;-81
2023/09/21 00:10:11;;;;;;;2.42;1.33;;;;;;;17.37;75.07;99908.28;4950623;28;20111;-80
2023/09/21 00:12:36;;;;;;;2.53;1.25;;;;;;;17.39;74.41;99902.91;4950402;28;20094;-80
2023/09/21 00:15:05;;;;;;;2.03;1.17;;;;;;;17.39;74.76;99906.41;4943592;29;20491;-80
2023/09/21 00:17:32;;;;;;;2.53;1.20;;;;;;;17.41;74.19;99898.41;4951401;29;20546;-81
2023/09/21 00:19:58;;;;;;;2.33;1.27;;;;;;;17.42;74.22;99890.38;4940191;28;20031;-81
2023/09/21 00:22:25;;;;;;;3.33;1.27;;;;;;;17.45;74.12;99884.91;4943691;28;20102;-81
2023/09/21 00:24:52;;;;;;;3.35;1.58;;;;;;;17.45;73.35;99884.09;4941692;29;20032;-81
2023/09/21 00:27:17;;;;;;;2.05;1.20;;;;;;;17.48;73.50;99880.41;4952020;29;20027;-81
2023/09/21 00:29:42;;;;;;;2.67;1.30;;;;;;;17.49;72.92;99877.69;4945033;29;20023;-81
2023/09/21 00:32:07;;;;;;;2.22;1.25;;;;;;;17.51;72.53;99875.75;4947275;29;20110;-81
2023/09/21 00:34:34;;;;;;;2.25;1.25;;;;;;;17.53;72.27;99865.16;4950907;29;20051;-81
2023/09/21 00:37:00;;;;;;;2.20;1.20;;;;;;;17.54;72.26;99862.41;4948062;29;20062;-81
2023/09/21 00:39:25;;;;;;;1.83;1.13;;;;;;;17.58;72.54;99863.03;4947340;28;20501;-81
2023/09/21 00:41:51;;;;;;;2.70;1.10;;;;;;;17.60;71.92;99855.84;4947997;29;20031;-81
2023/09/21 00:44:17;;;;;;;1.88;1.15;;;;;;;17.62;72.10;99853.97;4947512;29;20024;-81
2023/09/21 00:46:44;;;;;;;2.00;1.17;;;;;;;17.61;71.75;99847.03;4944550;29;20034;-81
2023/09/21 00:49:09;;;;;;;2.78;1.20;;;;;;;17.61;72.03;99847.03;4942536;29;20077;-81
2023/09/21 00:51:35;;;;;;;3.00;1.33;;;;;;;17.61;71.84;99841.75;4943600;28;20387;-81
2023/09/21 00:54:07;;;;;;;1.60;1.02;;;;;;;17.62;71.68;99845.25;4949286;29;20049;-81
2023/09/21 00:56:34;;;;;;;1.48;1.10;;;;;;;17.60;71.99;99840.94;4951444;29;20168;-81
2023/09/21 00:59:00;;;;;;;1.92;1.30;;;;;;;17.61;71.85;99839.13;4950771;29;20386;-82
2023/09/21 01:01:27;;;;;;;1.50;1.10;;;;;;;17.59;71.92;99831.34;4949979;28;20031;-81
2023/09/21 01:03:55;;;;;;;2.97;1.13;;;;;;;17.59;72.32;99823.47;4944821;28;20463;-81
2023/09/21 01:06:21;;;;;;;2.88;1.33;;;;;;;17.58;72.09;99831.47;4949845;28;20038;-81
2023/09/21 01:08:48;;;;;;;3.00;1.23;;;;;;;17.55;72.01;99821.19;4947337;28;20043;-81
2023/09/21 01:11:14;;;;;;;2.75;1.30;;;;;;;17.53;72.56;99817.81;4948529;29;20494;-81
2023/09/21 01:13:41;;;;;;;1.65;1.08;;;;;;;17.52;72.28;99821.38;4945397;29;20023;-81
2023/09/21 01:16:15;;;;;;;1.73;1.15;;;;;;;17.49;72.79;99816.34;4947716;29;20419;-81
2023/09/21 01:18:41;;;;;;;2.20;1.35;;;;;;;17.45;73.01;99811.28;4944547;29;20028;-81
2023/09/21 01:21:09;;;;;;;1.80;1.10;;;;;;;17.43;72.54;99817.63;4944540;29;20048;-81
2023/09/21 01:23:38;;;;;;;2.60;1.20;;;;;;;17.42;72.88;99810.69;4945136;29;20054;-81
2023/09/21 01:26:04;;;;;;;1.73;1.08;;;;;;;17.39;73.06;99811.75;4945077;29;20034;-81
2023/09/21 01:28:30;;;;;;;1.73;1.15;;;;;;;17.38;72.89;99806.59;4947391;28;20105;-81
2023/09/21 01:30:58;;;;;;;2.45;1.15;;;;;;;17.35;72.81;99797.13;4943763;28;20031;-81
2023/09/21 01:33:24;;;;;;;2.33;1.23;;;;;;;17.33;72.93;99806.91;4946925;29;20087;-81
2023/09/21 01:35:49;;;;;;;2.03;1.05;;;;;;;17.33;73.06;99798.22;4947074;29;20222;-81
2023/09/21 01:38:15;;;;;;;2.92;1.40;;;;;;;17.31;73.20;99786.97;4944589;29;20082;-81
2023/09/21 01:40:42;;;;;;;2.38;1.10;;;;;;;17.31;72.80;99782.53;4949335;28;20121;-81
2023/09/21 01:43:15;;;;;;;1.92;1.02;;;;;;;17.28;73.08;99777.47;4948014;28;20031;-81
2023/09/21 01:45:42;;;;;;;3.67;1.40;;;;;;;17.27;73.47;99775.81;4950320;29;20038;-81
2023/09/21 01:48:08;;;;;;;2.42;1.20;;;;;;;17.25;73.76;99772.47;4946501;28;20035;-81
2023/09/21 01:50:40;;;;;;;1.60;1.30;;;;;;;17.22;73.38;99763.00;4950276;29;20786;-81
2023/09/21 01:53:09;;;;;;;2.35;1.27;;;;;;;17.21;73.81;99763.94;4947906;29;20494;-81
2023/09/21 01:55:35;;;;;;;2.05;1.25;;;;;;;17.20;73.55;99758.81;4948016;28;20026;-81
2023/09/21 01:58:00;;;;;;;2.17;1.10;;;;;;;17.19;73.69;99755.31;4945998;29;20049;-81
2023/09/21 02:00:27;;;;;;;2.58;1.15;;;;;;;17.19;73.57;99757.13;4950665;29;20035;-80
2023/09/21 02:02:54;;;;;;;2.15;1.27;;;;;;;17.18;74.10;99755.44;4946447;28;20064;-81
2023/09/21 02:05:20;;;;;;;2.65;1.30;;;;;;;17.16;74.08;99757.34;4945901;28;20032;-81
2023/09/21 02:07:48;;;;;;;2.28;1.25;;;;;;;17.14;73.72;99753.03;4945971;28;20027;-81
2023/09/21 02:10:15;;;;;;;1.90;1.00;;;;;;;17.12;73.86;99756.72;4942602;29;20036;-81
2023/09/21 02:12:54;;;;;;;1.88;1.20;;;;;;;17.11;74.39;99750.59;4946881;28;20027;-81
2023/09/21 02:15:19;;;;;;;2.08;1.20;;;;;;;17.10;74.23;99750.72;4944388;28;20096;-81
2023/09/21 02:17:45;;;;;;;2.05;1.17;;;;;;;17.09;74.59;99751.69;4943362;29;20125;-81
2023/09/21 02:20:13;;;;;;;1.92;1.17;;;;;;;17.07;74.31;99754.44;4945287;28;20035;-81
2023/09/21 02:22:42;;;;;;;3.20;1.20;;;;;;;17.06;74.31;99747.50;4946354;28;20031;-81
2023/09/21 02:25:10;;;;;;;3.20;1.35;;;;;;;17.05;74.42;99748.44;4944480;29;20035;-80
2023/09/21 02:27:36;;;;;;;2.50;1.13;;;;;;;17.03;74.44;99747.69;4941783;29;20486;-81
2023/09/21 02:30:01;;;;;;;1.80;1.08;;;;;;;17.01;74.27;99749.59;4946543;29;20399;-81
2023/09/21 02:32:27;;;;;;;3.63;1.40;;;;;;;16.99;74.57;99741.78;4945765;29;20113;-81
2023/09/21 02:34:52;;;;;;;3.17;1.50;;;;;;;16.98;74.95;99745.41;4941853;29;20055;-81
2023/09/21 02:37:18;;;;;;;2.60;1.20;;;;;;;16.97;74.69;99737.59;4944218;29;20034;-81
2023/09/21 02:39:43;;;;;;;2.10;1.17;;;;;;;16.95;74.63;99735.09;4945511;29;20062;-81
2023/09/21 02:42:09;;;;;;;1.90;1.20;;;;;;;16.94;74.83;99738.66;4945058;28;20047;-81
2023/09/21 02:44:34;;;;;;;2.45;1.15;;;;;;;16.92;74.70;99730.03;4944537;28;20027;-81
2023/09/21 02:47:00;;;;;;;3.58;1.30;;;;;;;16.91;75.51;99727.53;4949040;28;20102;-80
2023/09/21 02:49:25;;;;;;;1.88;1.13;;;;;;;16.89;74.74;99724.97;4942712;28;20463;-81
2023/09/21 02:51:52;;;;;;;2.35;1.30;;;;;;;16.89;74.94;99722.34;4946794;29;20778;-80
2023/09/21 02:54:17;;;;;;;2.63;1.30;;;;;;;16.89;74.97;99729.41;4946832;29;21855;-81
2023/09/21 02:56:43;;;;;;;2.63;1.40;;;;;;;16.86;75.25;99727.00;4947348;28;20106;-81
2023/09/21 02:59:09;;;;;;;2.50;1.33;;;;;;;16.85;74.69;99723.50;4945891;29;20035;-80
2023/09/21 03:01:35;;;;;;;2.80;1.10;;;;;;;16.84;75.21;99721.84;4947618;29;20486;-80
2023/09/21 03:04:03;;;;;;;2.65;1.33;;;;;;;16.85;75.12;99718.25;4946975;29;20031;-81
2023/09/21 03:06:32;;;;;;;3.22;1.10;;;;;;;16.85;75.37;99718.25;4947940;29;20058;-81
2023/09/21 03:08:57;;;;;;;3.95;1.30;;;;;;;16.84;75.15;99709.56;4946309;29;20069;-80
2023/09/21 03:11:23;;;;;;;2.78;1.30;;;;;;;16.86;74.92;99708.59;4949244;29;20430;-81
2023/09/21 03:13:48;;;;;;;2.45;1.17;;;;;;;16.86;75.13;99713.84;4945742;28;20051;-80
2023/09/21 03:16:16;;;;;;;1.83;1.20;;;;;;;16.84;75.29;99706.94;4949537;29;20027;-80
2023/09/21 03:18:42;;;;;;;2.22;1.27;;;;;;;16.83;75.46;99705.25;4949351;29;20106;-81
2023/09/21 03:21:09;;;;;;;3.78;1.13;;;;;;;16.83;75.31;99705.25;4949715;29;20130;-81
2023/09/21 03:23:34;;;;;;;1.63;1.17;;;;;;;16.84;75.14;99704.31;4945938;28;20023;-85
2023/09/21 03:26:00;;;;;;;2.35;1.15;;;;;;;16.85;75.12;99697.25;4948386;29;20107;-81
2023/09/21 03:28:26;;;;;;;2.50;1.15;;;;;;;16.86;75.75;99701.56;4946673;29;20026;-81
2023/09/21 03:30:53;;;;;;;2.70;1.40;;;;;;;16.86;75.08;99703.34;4946305;29;20024;-80
2023/09/21 03:33:20;;;;;;;3.15;1.30;;;;;;;16.88;74.93;99701.47;4944716;28;20082;-81
2023/09/21 03:35:46;;;;;;;1.70;1.23;;;;;;;16.88;75.17;99704.09;4944003;29;20027;-81
2023/09/21 03:38:18;;;;;;;2.33;1.23;;;;;;;16.90;75.16;99702.19;4949101;29;20071;-81
2023/09/21 03:40:44;;;;;;;2.45;1.00;;;;;;;16.92;75.10;99706.38;4963189;28;20046;-81
2023/09/21 03:43:12;;;;;;;2.28;1.20;;;;;;;16.94;75.12;99701.00;4947377;28;20447;-81
2023/09/21 03:45:39;;;;;;;3.42;1.17;;;;;;;16.95;75.28;99694.84;4941176;29;20035;-80
2023/09/21 03:48:05;;;;;;;2.42;1.42;;;;;;;16.98;74.69;99697.25;4948430;29;20027;-80
2023/09/21 03:50:31;;;;;;;2.20;1.08;;;;;;;16.99;74.75;99691.06;4945122;29;20227;-80
2023/09/21 03:52:57;;;;;;;1.50;1.10;;;;;;;17.03;74.97;99691.66;4945966;28;20034;-81
2023/09/21 03:55:22;;;;;;;1.75;1.05;;;;;;;17.04;74.71;99691.56;4952254;28;20035;-81
2023/09/21 03:57:47;;;;;;;1.90;1.20;;;;;;;17.07;74.66;99688.72;4950283;28;20042;-81
2023/09/21 04:00:36;;;;;;;2.45;1.30;;;;;;;17.09;74.82;99689.44;4948322;29;20032;-80
2023/09/21 04:03:09;;;;;;;3.95;1.27;;;;;;;17.10;74.98;99675.34;4968314;28;20035;-80
2023/09/21 04:05:37;;;;;;;1.40;1.00;;;;;;;17.12;74.70;99672.63;4946396;28;20094;-80
2023/09/21 04:08:03;;;;;;;2.10;1.23;;;;;;;17.13;74.85;99679.56;4952958;29;20483;-81
2023/09/21 04:10:30;;;;;;;2.40;1.10;;;;;;;17.13;74.51;99672.50;4949925;29;20074;-81
2023/09/21 04:12:56;;;;;;;2.55;1.13;;;;;;;17.13;74.99;99672.50;4950521;28;20055;-80
2023/09/21 04:15:26;;;;;;;2.22;1.20;;;;;;;17.14;74.53;99668.94;4948302;29;20051;-81
2023/09/21 04:17:52;;;;;;;2.15;1.15;;;;;;;17.17;75.07;99670.47;4948758;28;20065;-81
2023/09/21 04:20:19;;;;;;;3.00;1.35;;;;;;;17.18;75.48;99668.72;4947270;29;20123;-80
2023/09/21 04:22:45;;;;;;;1.70;1.15;;;;;;;17.19;75.21;99671.22;4947785;29;20033;-81
2023/09/21 04:25:13;;;;;;;2.75;1.20;;;;;;;17.21;74.88;99673.75;4944381;29;20131;-81
2023/09/21 04:27:42;;;;;;;3.60;1.25;;;;;;;17.20;75.18;99675.53;4954261;29;20102;-81
2023/09/21 04:30:14;;;;;;;3.05;1.25;;;;;;;17.23;75.37;99679.75;4955143;28;20078;-81
2023/09/21 04:32:45;;;;;;;2.30;1.20;;;;;;;17.23;75.08;99679.75;4956040;28;20027;-81
2023/09/21 04:35:10;;;;;;;1.98;1.25;;;;;;;17.23;74.85;99679.75;4948716;28;20473;-80
2023/09/21 04:37:38;;;;;;;2.78;1.30;;;;;;;17.24;75.34;99682.25;4944455;28;20027;-80
2023/09/21 04:40:04;;;;;;;1.70;1.13;;;;;;;17.26;75.80;99684.75;4942948;29;20035;-81
2023/09/21 04:42:30;;;;;;;1.88;1.17;;;;;;;17.25;75.17;99681.28;4945208;28;20028;-81
2023/09/21 04:44:57;;;;;;;2.50;1.20;;;;;;;17.26;76.00;99674.22;4944498;28;20041;-80
2023/09/21 04:47:23;;;;;;;2.55;1.20;;;;;;;17.26;75.70;99676.88;4947255;29;20471;-80
2023/09/21 04:49:49;;;;;;;2.60;1.35;;;;;;;17.27;75.61;99657.50;4949935;29;20046;-80
2023/09/21 04:52:14;;;;;;;2.60;1.10;;;;;;;17.27;75.65;99661.00;4940166;29;20019;-80
2023/09/21 04:54:39;;;;;;;3.58;1.40;;;;;;;17.27;75.83;99655.75;4951668;29;20051;-81
2023/09/21 04:57:05;;;;;;;3.85;1.25;;;;;;;17.28;75.50;99661.81;4951506;29;20050;-81
2023/09/21 04:59:30;;;;;;;2.83;1.25;;;;;;;17.27;76.27;99654.88;4945759;29;20051;-81
2023/09/21 05:01:55;;;;;;;2.30;1.30;;;;;;;17.27;76.52;99661.00;4945364;29;20035;-80
2023/09/21 05:04:21;;;;;;;2.25;1.23;;;;;;;17.26;76.39;99661.94;4946845;28;20118;-80
2023/09/21 05:06:46;;;;;;;2.38;1.20;;;;;;;17.24;76.57;99661.22;4944510;29;20050;-81
2023/09/21 05:09:12;;;;;;;3.13;1.30;;;;;;;17.24;76.70;99661.22;4948979;29;20042;-81
2023/09/21 05:11:40;;;;;;;2.40;1.30;;;;;;;17.23;77.16;99658.72;4942325;28;20364;-80
2023/09/21 05:14:06;;;;;;;2.58;1.13;;;;;;;17.23;76.91;99658.72;4944541;29;20035;-81
2023/09/21 05:16:34;;;;;;;6.25;1.45;;;;;;;17.20;77.22;99658.94;4949372;29;20026;-81
2023/09/21 05:19:00;;;;;;;2.55;1.48;;;;;;;17.18;77.01;99661.66;4944645;28;20027;-81
2023/09/21 05:21:25;;;;;;;2.05;1.45;;;;;;;17.17;77.15;99667.03;4946979;28;20031;-81
2023/09/21 05:23:50;;;;;;;3.25;1.40;;;;;;;17.16;77.51;99667.97;4943115;29;20035;-80
2023/09/21 05:26:16;;;;;;;2.67;1.30;;;;;;;17.17;77.71;99662.59;4946626;29;20449;-80
2023/09/21 05:28:41;;;;;;;2.88;1.40;;;;;;;17.16;77.63;99658.31;4952515;29;20043;-80
2023/09/21 05:31:10;;;;;;;4.70;1.50;;;;;;;17.14;77.83;99663.66;4953967;28;20499;-80
2023/09/21 05:33:38;;;;;;;2.53;1.40;;;;;;;17.13;78.22;99662.00;4952153;29;20047;-81
2023/09/21 05:36:07;;;;;;;2.78;1.35;;;;;;;17.12;78.31;99660.31;4953783;28;20050;-81
2023/09/21 05:38:32;;;;;;;3.33;1.35;;;;;;;17.11;78.55;99658.63;4948568;28;20027;-80
2023/09/21 05:41:02;;;;;;;3.22;1.42;;;;;;;17.11;78.35;99661.25;4946365;29;20047;-81
2023/09/21 05:43:29;;;;;;;2.00;1.27;;;;;;;17.10;78.15;99650.88;4950044;29;20086;-80
2023/09/21 05:45:54;;;;;;;2.80;1.40;;;;;;;17.10;78.48;99656.13;4945642;28;20415;-81
2023/09/21 05:48:19;;;;;;;2.42;1.40;;;;;;;17.09;78.56;99641.31;4950021;28;20468;-80
2023/09/21 05:50:45;;;;;;;4.47;1.60;;;;;;;17.09;78.22;99636.06;4952617;28;20042;-81
2023/09/21 05:53:11;;;;;;;2.97;1.30;;;;;;;17.10;78.29;99638.56;4943286;28;20031;-81
2023/09/21 05:55:36;;;;;;;5.55;1.70;;;;;;;17.10;78.74;99649.06;4951752;29;20027;-80
2023/09/21 05:58:04;;;;;;;2.38;1.40;;;;;;;17.11;78.58;99640.25;4954380;28;20174;-81
2023/09/21 06:00:30;;;;;;;2.30;1.48;;;;;;;17.11;78.71;99642.88;4949521;29;20031;-81
2023/09/21 06:02:56;;;;;;;2.40;1.40;;;;;;;17.12;78.34;99638.47;4944139;28;20388;-81
2023/09/21 06:05:21;;;;;;;2.40;1.50;;;;;;;17.13;79.17;99642.78;4940129;29;20027;-81
2023/09/21 06:07:46;;;;;;;2.70;1.50;;;;;;;17.14;79.02;99639.19;4953374;29;20031;-80
2023/09/21 06:10:11;;;;;;;2.20;1.30;;;;;;;17.13;79.29;99633.09;4947870;29;20444;-80
2023/09/21 06:12:37;;;;;;;3.00;1.70;;;;;;;17.14;79.18;99644.44;4942151;29;20033;-81
2023/09/21 06:15:05;;;;;;;5.43;1.55;;;;;;;17.14;79.28;99640.03;4954648;28;20470;-80
2023/09/21 06:17:31;;;;;;;2.65;1.48;;;;;;;17.17;79.77;99646.84;4947355;28;20035;-81
2023/09/21 06:19:56;;;;;;;2.83;1.30;;;;;;;17.18;80.55;99645.06;4954339;29;20375;-80
2023/09/21 06:22:21;;;;;;;3.05;1.45;;;;;;;17.18;79.94;99656.41;4938091;29;20031;-80
2023/09/21 06:24:46;;;;;;;2.78;1.38;;;;;;;17.17;80.34;99654.72;4943771;29;20329;-80
2023/09/21 06:27:14;;;;;;;2.90;1.60;;;;;;;17.17;81.13;99638.94;4947225;29;20453;-80
2023/09/21 06:29:40;;;;;;;3.63;1.48;;;;;;;17.17;80.58;99654.72;4952883;29;20423;-81
2023/09/21 06:32:07;;;;;;;2.38;1.25;;;;;;;17.18;81.72;99650.31;4953194;28;20023;-80
2023/09/21 06:34:33;;;;;;;2.85;1.38;;;;;;;17.18;81.76;99656.41;4945755;29;20105;-80
2023/09/21 06:36:59;;;;;;;2.72;1.50;;;;;;;17.15;82.95;99659.28;4945475;28;20031;-82
2023/09/21 06:39:24;;;;;;;2.40;1.27;;;;;;;17.14;83.21;99655.78;4943603;29;20019;-82
2023/09/21 06:41:49;;;;;;;2.97;1.55;;;;;;;17.13;83.21;99663.78;4949096;28;20114;-82
2023/09/21 06:44:15;;;;;;;3.47;1.50;;;;;;;17.10;84.23;99664.84;4942611;28;20483;-82
2023/09/21 06:46:40;;;;;;;2.97;1.48;;;;;;;17.10;84.16;99667.47;4942788;28;20023;-82
2023/09/21 06:49:06;;;;;;;3.20;1.67;;;;;;;17.08;83.88;99661.47;4952211;29;20031;-82
2023/09/21 06:51:31;;;;;;;2.90;1.60;;;;;;;17.08;84.19;99661.47;4951894;29;20051;-82
2023/09/21 06:54:00;;;;;;;2.85;1.40;;;;;;;17.07;84.92;99659.81;4947984;28;21140;-82
2023/09/21 06:56:31;;;;;;;2.28;1.58;;;;;;;17.07;85.61;99654.56;4943450;28;20072;-82
2023/09/21 06:58:56;;;;;;;2.33;1.30;;;;;;;17.06;86.15;99652.91;4934952;29;20111;-82
2023/09/21 07:01:22;;;;;;;2.17;1.30;;;;;;;17.08;85.85;99658.84;4947585;29;20035;-82
2023/09/21 07:03:48;;;;;;;2.83;1.73;;;;;;;17.07;86.17;99659.81;4948486;28;20058;-82
2023/09/21 07:06:14;;;;;;;2.83;1.40;;;;;;;17.07;86.65;99670.34;4943471;28;20067;-82
2023/09/21 07:08:39;;;;;;;2.10;1.52;;;;;;;17.04;87.11;99665.31;4945560;28;20490;-83
2023/09/21 07:11:05;;;;;;;2.40;1.50;;;;;;;17.05;86.73;99666.13;4946696;29;20458;-82
2023/09/21 07:13:31;;;;;;;2.60;1.40;;;;;;;17.03;87.01;99666.25;4946307;29;20031;-84
2023/09/21 07:15:58;;;;;;;3.25;1.90;;;;;;;17.04;86.96;99667.94;4944570;28;20031;-84
2023/09/21 07:18:25;;;;;;;1.77;1.30;;;;;;;17.05;87.49;99672.22;4963999;28;20348;-84
2023/09/21 07:20:50;;;;;;;2.25;1.58;;;;;;;17.06;87.32;99663.41;4951161;29;20538;-84
2023/09/21 07:23:16;;;;;;;3.35;1.58;;;;;;;17.09;88.00;99668.41;4944725;28;20036;-84
2023/09/21 07:25:41;;;;;;;2.75;1.40;;;;;;;17.11;87.78;99666.50;4942512;29;20053;-84
2023/09/21 07:28:06;;;;;;;2.35;1.40;;;;;;;17.13;89.07;99669.88;4949726;28;20031;-84
2023/09/21 07:30:32;;;;;;;2.20;1.40;;;;;;;17.18;89.88;99666.09;4945210;28;20098;-84
2023/09/21 07:32:59;;;;;;;2.90;1.60;;;;;;;17.21;90.46;99655.34;4955587;28;20482;-84
2023/09/21 07:35:24;;;;;;;2.47;1.67;;;;;;;17.22;90.97;99667.53;4956445;28;20094;-84
2023/09/21 07:37:50;;;;;;;3.03;1.80;;;;;;;17.22;91.05;99667.53;4948797;29;20027;-84
2023/09/21 07:40:16;;;;;;;2.80;1.42;;;;;;;17.21;90.81;99665.88;4951042;28;20027;-84
2023/09/21 07:42:45;;;;;;;3.70;1.77;;;;;;;17.19;90.85;99679.09;4951462;29;20031;-84
2023/09/21 07:45:12;;;;;;;3.45;1.90;;;;;;;17.17;91.34;99669.66;4950003;29;20030;-84
2023/09/21 07:47:38;;;;;;;3.38;1.83;;;;;;;17.17;91.69;99664.41;4948428;29;20027;-84
2023/09/21 07:50:04;;;;;;;3.85;1.88;;;;;;;17.15;92.12;99661.91;4951766;29;20038;-83
2023/09/21 07:52:30;;;;;;;4.53;1.95;;;;;;;17.13;92.38;99667.25;4948986;28;20038;-84
2023/09/21 07:54:56;;;;;;;2.88;1.90;;;;;;;17.10;92.45;99661.38;4949706;29;20027;-84
2023/09/21 07:57:22;;;;;;;3.72;2.20;;;;;;;17.08;92.45;99663.28;4945900;28;20394;-88
2023/09/21 07:59:47;;;;;;;3.92;2.30;;;;;;;17.05;92.55;99661.72;4948433;28;20043;-84
2023/09/21 08:02:12;;;;;;;5.05;2.28;;;;;;;17.04;92.86;99667.94;4948229;29;20043;-84
2023/09/21 08:04:38;;;;;;;3.72;2.03;;;;;;;17.03;93.11;99668.00;4950374;29;20474;-84
2023/09/21 08:07:05;;;;;;;4.13;1.98;;;;;;;17.01;93.66;99670.75;4948787;29;20023;-84
2023/09/21 08:09:31;;;;;;;3.13;1.85;;;;;;;17.00;93.95;99671.72;4948868;29;20075;-84
2023/09/21 08:11:56;;;;;;;3.53;1.85;;;;;;;16.99;93.97;99672.66;4947486;28;20106;-84
2023/09/21 08:14:22;;;;;;;3.72;1.98;;;;;;;16.98;94.57;99670.97;4947349;29;20047;-84
2023/09/21 08:16:47;;;;;;;3.42;2.10;;;;;;;16.98;94.70;99678.88;4949499;29;20015;-84
2023/09/21 08:19:13;;;;;;;3.58;2.20;;;;;;;16.98;94.85;99671.84;4944877;28;20083;-84
2023/09/21 08:21:38;;;;;;;3.75;1.75;;;;;;;16.96;95.14;99672.88;4946905;29;20059;-84
2023/09/21 08:24:04;;;;;;;2.75;1.83;;;;;;;16.95;94.83;99682.56;4944801;29;20031;-84
2023/09/21 08:26:30;;;;;;;6.60;1.88;;;;;;;16.94;95.61;99685.25;4949446;28;20028;-84
2023/09/21 08:28:58;;;;;;;4.30;1.85;;;;;;;16.92;95.76;99697.66;4945846;28;20031;-84
2023/09/21 08:31:23;;;;;;;2.78;1.70;;;;;;;16.89;95.88;99695.25;4945185;29;20053;-83
2023/09/21 08:33:49;;;;;;;3.25;1.70;;;;;;;16.87;96.37;99697.97;4944512;29;20473;-84
2023/09/21 08:36:15;;;;;;;2.20;1.50;;;;;;;16.85;96.11;99699.88;4947058;29;20023;-84
2023/09/21 08:38:41;;;;;;;3.35;1.65;;;;;;;16.86;96.67;99711.22;4946739;28;20047;-84
2023/09/21 08:41:07;;;;;;;3.33;1.70;;;;;;;16.81;96.89;99711.56;4950644;29;20074;-83
2023/09/21 08:43:34;;;;;;;2.72;1.80;;;;;;;16.79;97.05;99714.28;4944840;28;20028;-84
2023/09/21 08:46:00;;;;;;;3.95;1.80;;;;;;;16.79;97.21;99716.91;4948676;29;20083;-84
2023/09/21 08:48:29;;;;;;;3.88;1.63;;;;;;;16.80;96.22;99723.84;4947790;28;20751;-84
2023/09/21 08:50:57;;;;;;;2.75;1.65;;;;;;;16.80;96.85;99715.13;4941780;29;20027;-84
2023/09/21 08:53:23;;;;;;;4.05;1.70;;;;;;;16.82;96.89;99729.00;4945562;28;20394;-84
2023/09/21 08:55:51;;;;;;;3.60;1.85;;;;;;;16.83;97.12;99741.16;4947996;29;20023;-84
2023/09/21 08:58:23;;;;;;;2.10;1.50;;;;;;;16.83;96.56;99744.66;4947778;28;20039;-84
2023/09/21 09:00:53;;;;;;;3.10;1.90;;;;;;;16.87;97.12;99757.56;4947331;28;20542;-84
2023/09/21 09:03:20;;;;;;;3.35;1.70;;;;;;;16.88;97.08;99754.00;4946994;29;20454;-84
2023/09/21 09:05:46;;;;;;;2.35;1.55;;;;;;;16.91;97.25;99740.66;4947621;28;20038;-84
2023/09/21 09:08:12;;;;;;;2.83;1.58;;;;;;;16.94;97.54;99748.28;4944788;28;20137;-84
2023/09/21 09:10:41;;;;;;;3.88;1.67;;;;;;;16.98;97.81;99745.41;4947203;29;20546;-84
2023/09/21 09:13:07;;;;;;;4.43;1.80;;;;;;;17.04;97.90;99746.75;4947852;28;20499;-84
2023/09/21 09:15:38;;;;;;;2.88;1.80;;;;;;;17.08;97.61;99736.84;4949541;28;20131;-82
2023/09/21 09:18:05;;;;;;;2.35;1.50;;;;;;;17.13;98.08;99738.19;4948369;28;20058;-83
2023/09/21 09:20:32;;;;;;;3.72;2.00;;;;;;;17.14;97.35;99737.25;4940797;29;20035;-81
2023/09/21 09:22:58;;;;;;;4.95;1.83;;;;;;;17.19;98.09;99741.34;4941748;29;20038;-83
2023/09/21 09:25:24;;;;;;;3.42;2.13;;;;;;;17.21;97.70;99749.97;4936035;28;20039;-87
2023/09/21 09:27:50;;;;;;;7.00;2.30;;;;;;;17.20;97.08;99748.28;4940449;28;20038;-86
2023/09/21 09:30:16;;;;;;;4.80;2.42;;;;;;;17.20;97.25;99743.84;4940881;29;20170;-87
2023/09/21 09:32:47;;;;;;;4.35;2.45;;;;;;;17.20;97.48;99746.50;4940993;28;20027;-83
2023/09/21 09:35:13;;;;;;;3.00;2.10;;;;;;;17.21;97.02;99728.94;4940568;28;20052;-86
2023/09/21 09:37:43;;;;;;;3.40;2.13;;;;;;;17.22;97.13;99730.63;4943283;29;20038;-86
2023/09/21 09:40:10;;;;;;;3.47;2.20;;;;;;;17.24;96.47;99719.03;4943793;29;20095;-87
2023/09/21 09:42:40;;;;;;;2.85;2.22;;;;;;;17.25;96.76;99718.09;4940888;28;20027;-84
2023/09/21 09:45:10;;;;;;;3.10;2.10;;;;;;;17.27;96.71;99728.47;4957468;28;20031;-86
2023/09/21 09:47:36;;;;;;;2.92;2.13;;;;;;;17.29;96.64;99722.19;4942646;29;20247;-85
2023/09/21 09:50:04;;;;;;;4.05;2.10;;;;;;;17.34;97.34;99719.22;4942555;28;20035;-84
2023/09/21 09:52:30;;;;;;;4.90;1.83;;;;;;;17.38;97.67;99723.31;4941349;29;20028;-84
2023/09/21 09:54:57;;;;;;;2.42;2.17;;;;;;;17.41;96.49;99733.63;4939758;29;20023;-84
2023/09/21 09:57:24;;;;;;;2.70;2.10;;;;;;;17.42;95.95;99735.25;4944160;28;20058;-84
2023/09/21 09:59:50;;;;;;;3.58;2.17;;;;;;;17.45;96.04;99726.34;4939272;29;20537;-84
2023/09/21 10:02:17;;;;;;;3.20;2.30;;;;;;;17.45;96.24;99721.91;4938430;28;20464;-84
2023/09/21 10:04:46;;;;;;;3.60;2.38;;;;;;;17.48;96.09;99714.75;4935304;29;20027;-86
2023/09/21 10:07:16;;;;;;;4.47;2.65;;;;;;;17.48;96.16;99717.38;4940026;29;20031;-85
2023/09/21 10:09:43;;;;;;;4.88;2.50;;;;;;;17.48;96.73;99725.25;4937113;29;20031;-84
2023/09/21 10:12:10;;;;;;;4.80;2.40;;;;;;;17.52;96.86;99716.22;4936594;28;20479;-84
2023/09/21 10:14:42;;;;;;;3.05;2.33;;;;;;;17.56;96.76;99728.19;4934978;29;20055;-84
2023/09/21 10:17:10;;;;;;;3.33;2.30;;;;;;;17.59;96.39;99717.44;4933502;29;20027;-87
2023/09/21 10:19:38;;;;;;;3.35;2.30;;;;;;;17.62;96.47;99711.13;4938387;28;20070;-86
2023/09/21 10:22:26;;;;;;;3.50;2.70;;;;;;;17.66;96.46;99702.88;4935078;28;20093;-85
2023/09/21 10:24:55;;;;;;;3.90;2.58;;;;;;;17.68;97.37;99703.59;4936329;28;20601;-86
2023/09/21 10:27:24;;;;;;;4.63;2.70;;;;;;;17.67;98.28;99704.56;4937926;29;20230;-85
2023/09/21 10:29:53;;;;;;;3.50;2.70;;;;;;;17.69;98.50;99702.66;4935608;29;20218;-85
2023/09/21 10:32:23;;;;;;;5.03;2.72;;;;;;;17.70;98.94;99699.06;4936611;28;20047;-85
2023/09/21 10:34:50;;;;;;;3.75;2.83;;;;;;;17.70;99.06;99699.06;4935447;29;20137;-83
2023/09/21 10:37:23;;;;;;;5.60;3.20;;;;;;;17.72;98.70;99699.81;4935222;29;20027;-87
2023/09/21 10:39:57;;;;;;;4.95;3.28;;;;;;;17.74;99.42;99697.91;4935470;29;20031;-85
2023/09/21 10:42:29;;;;;;;5.10;4.05;;;;;;;17.75;99.70;99691.69;4950804;28;20043;-84
2023/09/21 10:44:58;;;;;;;4.55;3.75;;;;;;;17.78;100.00;99685.34;4935791;29;20055;-85
2023/09/21 10:47:35;;;;;;;5.85;3.50;;;;;;;17.81;99.90;99689.53;4953263;28;20427;-85
2023/09/21 10:50:06;;;;;;;4.15;3.03;;;;;;;17.84;100.00;99677.00;4935687;29;20110;-84
2023/09/21 10:52:32;;;;;;;3.70;2.65;;;;;;;17.86;99.73;99682.16;4940877;28;20360;-85
2023/09/21 10:54:58;;;;;;;4.43;2.33;;;;;;;17.87;99.75;99673.28;4940146;28;20467;-86
2023/09/21 10:57:28;;;;;;;3.03;2.00;;;;;;;17.90;100.00;99665.19;4938547;29;20066;-83
2023/09/21 10:59:55;;;;;;;4.22;1.88;;;;;;;17.93;99.39;99666.72;4940742;28;20579;-84
2023/09/21 11:02:22;;;;;;;2.42;1.90;;;;;;;17.94;99.21;99663.97;4937556;29;20042;-84
2023/09/21 11:04:48;;;;;;;2.90;1.75;;;;;;;17.93;97.60;99651.78;4940868;29;20703;-83
2023/09/21 11:07:14;;;;;;;1.90;1.40;;;;;;;17.91;96.00;99653.69;4943290;29;20062;-83
2023/09/21 11:09:42;;;;;;;2.45;1.52;;;;;;;17.93;96.60;99654.44;4942742;29;20023;-83
2023/09/21 11:12:08;;;;;;;1.77;1.30;;;;;;;17.94;96.02;99645.56;4941986;28;20466;-88
2023/09/21 11:14:34;;;;;;;2.45;1.33;;;;;;;17.97;96.24;99645.31;4939445;29;20058;-83
2023/09/21 11:16:59;;;;;;;2.15;1.30;;;;;;;18.00;95.62;99636.41;4940811;28;20422;-84
2023/09/21 11:19:26;;;;;;;2.47;1.40;;;;;;;18.01;95.16;99628.38;4939272;28;20807;-85
2023/09/21 11:21:51;;;;;;;2.42;1.50;;;;;;;18.04;94.60;99620.25;4941541;28;20035;-87
2023/09/21 11:24:16;;;;;;;1.83;1.27;;;;;;;18.08;94.93;99625.28;4941714;28;20067;-86
2023/09/21 11:26:46;;;;;;;2.90;1.40;;;;;;;18.10;95.24;99618.13;4940849;28;20042;-87
2023/09/21 11:29:14;;;;;;;2.53;1.13;;;;;;;18.13;93.81;99628.38;4941641;28;20050;-85
2023/09/21 11:31:43;;;;;;;2.60;1.38;;;;;;;18.17;93.76;99624.56;4955665;28;20035;-85